createdAt,value
2022-10-07T00:03:35.097Z,98315.00
2022-10-07T00:08:37.684Z,98308.00
2022-10-07T00:13:40.386Z,98320.00
2022-10-07T00:18:41.155Z,98307.00
2022-10-07T00:23:43.513Z,98297.00
2022-10-07T00:28:45.502Z,98288.00
2022-10-07T00:33:47.212Z,98287.00
2022-10-07T00:38:57.319Z,98278.00
2022-10-07T00:43:59.419Z,98270.00
2022-10-07T00:49:09.017Z,98280.00
2022-10-07T00:54:14.031Z,98265.00
2022-10-07T00:59:17.840Z,98262.00
2022-10-07T01:04:20.254Z,98264.00
2022-10-07T01:09:21.317Z,98258.00
2022-10-07T01:15:14.774Z,98263.00
2022-10-07T01:20:33.344Z,98243.00
2022-10-07T01:30:41.058Z,98240.00
2022-10-07T01:35:46.234Z,98230.00
2022-10-07T01:40:51.589Z,98228.00
2022-10-07T01:45:54.182Z,98220.00
2022-10-07T01:50:56.573Z,98225.00
2022-10-07T01:56:59.885Z,98205.00
2022-10-07T02:02:07.506Z,98203.00
2022-10-07T02:08:45.010Z,98196.00
2022-10-07T02:20:37.230Z,98177.00
2022-10-07T02:25:43.593Z,98174.00
2022-10-07T02:30:52.582Z,98165.00
2022-10-07T02:35:58.812Z,98159.00
2022-10-07T02:41:51.747Z,98163.00
2022-10-07T02:47:04.921Z,98157.00
2022-10-07T02:52:09.536Z,98150.00
2022-10-07T02:57:15.286Z,98143.00
2022-10-07T03:02:24.989Z,98139.00
2022-10-07T03:07:26.766Z,98133.00
2022-10-07T03:12:28.157Z,98137.00
2022-10-07T03:17:29.490Z,98132.00
2022-10-07T03:22:30.280Z,98128.00
2022-10-07T03:27:31.291Z,98119.00
2022-10-07T03:32:33.387Z,98121.00
2022-10-07T03:37:34.196Z,98115.00
2022-10-07T03:42:35.074Z,98113.00
2022-10-07T03:47:38.070Z,98113.00
2022-10-07T03:52:40.408Z,98111.00
2022-10-07T03:57:55.455Z,98114.00
2022-10-07T04:03:01.578Z,98110.00
2022-10-07T04:08:06.250Z,98110.00
2022-10-07T04:13:07.302Z,98100.00
2022-10-07T04:18:10.149Z,98095.00
2022-10-07T04:23:11.180Z,98087.00
2022-10-07T04:28:18.967Z,98087.00
2022-10-07T04:33:23.242Z,98092.00
2022-10-07T04:38:28.215Z,98079.00
2022-10-07T04:43:33.340Z,98080.00
2022-10-07T04:48:45.138Z,98073.00
2022-10-07T04:53:56.915Z,98080.00
2022-10-07T04:59:02.405Z,98078.00
2022-10-07T05:04:03.679Z,98077.00
2022-10-07T05:09:05.860Z,98060.00
2022-10-07T05:14:09.239Z,98049.00
2022-10-07T05:19:10.476Z,98056.00
2022-10-07T05:24:12.031Z,98052.00
2022-10-07T05:29:13.453Z,98050.00
2022-10-07T05:34:19.669Z,98056.00
2022-10-07T05:39:20.685Z,98056.00
2022-10-07T05:44:27.117Z,98047.00
2022-10-07T05:49:29.980Z,98047.00
2022-10-07T05:54:32.646Z,98050.00
2022-10-07T05:59:34.711Z,98041.00
2022-10-07T06:04:36.407Z,98043.00
2022-10-07T06:09:55.664Z,98039.00
2022-10-07T06:14:56.678Z,98037.00
2022-10-07T06:19:57.699Z,98034.00
2022-10-07T06:25:01.423Z,98040.00
2022-10-07T06:30:05.041Z,98027.00
2022-10-07T06:35:07.418Z,98034.00
2022-10-07T06:40:09.378Z,98037.00
2022-10-07T06:45:10.279Z,98037.00
2022-10-07T06:50:14.040Z,98037.00
2022-10-07T06:55:17.058Z,98046.00
2022-10-07T07:00:18.061Z,98037.00
2022-10-07T07:05:19.916Z,98035.00
2022-10-07T07:10:21.126Z,98043.00
2022-10-07T07:15:24.384Z,98034.00
2022-10-07T07:20:26.090Z,98043.00
2022-10-07T07:25:27.826Z,98033.00
2022-10-07T07:30:29.710Z,98031.00
2022-10-07T07:35:36.656Z,98027.00
2022-10-07T07:40:38.968Z,98024.00
2022-10-07T07:45:40.020Z,98026.00
2022-10-07T07:50:41.306Z,98024.00
2022-10-07T07:55:54.414Z,98016.00
2022-10-07T08:01:01.258Z,98023.00
2022-10-07T08:06:07.191Z,98014.00
2022-10-07T08:11:19.711Z,98003.00
2022-10-07T08:16:24.260Z,98000.00
2022-10-07T08:21:32.174Z,98003.00
2022-10-07T08:26:35.042Z,98004.00
2022-10-07T08:31:37.349Z,98001.00
2022-10-07T08:36:40.062Z,98002.00
2022-10-07T08:41:56.759Z,98004.00
2022-10-07T08:47:39.143Z,97998.00
2022-10-07T08:53:22.945Z,98005.00
2022-10-07T08:59:02.624Z,97997.00
2022-10-07T09:05:17.201Z,97996.00
2022-10-07T09:10:43.635Z,97990.00
2022-10-07T09:15:51.500Z,97985.00
2022-10-07T09:20:55.912Z,97978.00
2022-10-07T09:25:57.132Z,97971.00
2022-10-07T09:30:59.942Z,97965.00
2022-10-07T09:36:07.555Z,97955.00
2022-10-07T09:41:50.918Z,97950.00
2022-10-07T09:46:53.516Z,97945.00
2022-10-07T09:52:22.842Z,97939.00
2022-10-07T09:57:35.553Z,97936.00
2022-10-07T10:02:36.514Z,97937.00
2022-10-07T10:07:38.606Z,97934.00
2022-10-07T10:12:51.089Z,97932.00
2022-10-07T10:17:54.003Z,97926.00
2022-10-07T10:22:55.732Z,97919.00
2022-10-07T10:28:09.071Z,97921.00
2022-10-07T10:33:30.268Z,97909.00
2022-10-07T10:38:39.017Z,97906.00
2022-10-07T10:44:41.897Z,97900.00
2022-10-07T10:54:53.941Z,97881.00
2022-10-07T11:00:21.614Z,97884.00
2022-10-07T11:05:25.344Z,97866.00
2022-10-07T11:10:33.238Z,97858.00
2022-10-07T11:15:40.562Z,97858.00
2022-10-07T11:20:47.250Z,97849.00
2022-10-07T11:26:01.926Z,97845.00
2022-10-07T11:31:25.672Z,97835.00
2022-10-07T11:37:02.314Z,97828.00
2022-10-07T11:42:13.898Z,97812.00
2022-10-07T11:47:20.911Z,97812.00
2022-10-07T11:52:27.102Z,97797.00
2022-10-07T11:57:37.663Z,97783.00
2022-10-07T12:02:45.127Z,97781.00
2022-10-07T12:07:59.111Z,97782.00
2022-10-07T12:14:01.999Z,97749.00
2022-10-07T12:19:23.868Z,97742.00
2022-10-07T12:24:30.553Z,97740.00
2022-10-07T12:29:44.423Z,97722.00
2022-10-07T12:34:46.711Z,97715.00
2022-10-07T12:39:48.037Z,97713.00
2022-10-07T12:44:52.010Z,97706.00
2022-10-07T12:49:58.382Z,97684.00
2022-10-07T12:55:02.616Z,97688.00
2022-10-07T13:00:24.788Z,97673.00
2022-10-07T13:06:12.698Z,97675.00
2022-10-07T13:13:06.007Z,97660.00
2022-10-07T13:18:21.960Z,97654.00
2022-10-07T13:23:27.395Z,97650.00
2022-10-07T13:28:45.261Z,97654.00
2022-10-07T13:33:47.074Z,97638.00
2022-10-07T13:38:52.846Z,97633.00
2022-10-07T13:44:01.594Z,97624.00
2022-10-07T13:49:03.366Z,97619.00
2022-10-07T13:54:15.061Z,97610.00
2022-10-07T13:59:18.840Z,97601.00
2022-10-07T14:04:28.222Z,97600.00
2022-10-07T14:10:09.142Z,97588.00
2022-10-07T14:15:23.008Z,97577.00
2022-10-07T14:20:40.116Z,97578.00
2022-10-07T14:25:55.716Z,97562.00
2022-10-07T14:32:29.722Z,97568.00
2022-10-07T14:37:31.922Z,97560.00
2022-10-07T14:42:35.332Z,97549.00
2022-10-07T14:47:36.977Z,97543.00
2022-10-07T14:52:47.622Z,97538.00
2022-10-07T14:57:49.196Z,97532.00
2022-10-07T15:02:50.303Z,97534.00
2022-10-07T15:07:51.296Z,97528.00
2022-10-07T15:12:53.368Z,97518.00
2022-10-07T15:17:54.177Z,97517.00
2022-10-07T15:22:56.467Z,97515.00
2022-10-07T15:27:58.795Z,97510.00
2022-10-07T15:32:59.936Z,97504.00
2022-10-07T15:38:01.593Z,97501.00
2022-10-07T15:43:02.942Z,97503.00
2022-10-07T15:48:04.935Z,97494.00
2022-10-07T15:53:05.705Z,97495.00
2022-10-07T15:58:06.501Z,97497.00
2022-10-07T16:03:07.339Z,97489.00
2022-10-07T16:08:09.060Z,97491.00
2022-10-07T16:13:09.888Z,97486.00
2022-10-07T16:18:10.657Z,97482.00
2022-10-07T16:23:11.445Z,97479.00
2022-10-07T16:28:30.753Z,97482.00
2022-10-07T16:33:31.633Z,97480.00
2022-10-07T16:38:32.426Z,97476.00
2022-10-07T16:43:35.039Z,97477.00
2022-10-07T16:48:41.274Z,97477.00
2022-10-07T16:53:45.759Z,97479.00
2022-10-07T16:58:46.871Z,97482.00
2022-10-07T17:03:49.093Z,97476.00
2022-10-07T17:08:50.018Z,97472.00
2022-10-07T17:13:50.929Z,97481.00
2022-10-07T17:18:52.182Z,97478.00
2022-10-07T17:23:57.370Z,97480.00
2022-10-07T17:29:01.159Z,97474.00
2022-10-07T17:34:02.662Z,97479.00
2022-10-07T17:39:03.451Z,97465.00
2022-10-07T17:44:09.881Z,97471.00
2022-10-07T17:49:12.489Z,97477.00
2022-10-07T17:54:13.344Z,97469.00
2022-10-07T17:59:15.022Z,97477.00
2022-10-07T18:04:22.538Z,97482.00
2022-10-07T18:09:24.727Z,97482.00
2022-10-07T18:14:44.223Z,97466.00
2022-10-07T18:19:45.831Z,97468.00
2022-10-07T18:24:46.729Z,97468.00
2022-10-07T18:29:47.642Z,97470.00
2022-10-07T18:34:48.594Z,97465.00
2022-10-07T18:39:50.193Z,97466.00
2022-10-07T18:44:51.522Z,97462.00
2022-10-07T18:49:54.280Z,97454.00
2022-10-07T18:54:55.146Z,97459.00
2022-10-07T18:59:56.190Z,97453.00
2022-10-07T19:04:57.274Z,97460.00
2022-10-07T19:09:58.096Z,97451.00
2022-10-07T19:14:58.941Z,97439.00
2022-10-07T19:20:00.156Z,97447.00
2022-10-07T19:25:20.424Z,97440.00
2022-10-07T19:30:21.291Z,97437.00
2022-10-07T19:35:22.350Z,97437.00
2022-10-07T19:40:23.083Z,97439.00
2022-10-07T19:45:24.488Z,97431.00
2022-10-07T19:50:25.727Z,97433.00
2022-10-07T19:55:27.811Z,97434.00
2022-10-07T20:00:31.058Z,97430.00
2022-10-07T20:05:31.750Z,97431.00
2022-10-07T20:10:33.460Z,97429.00
2022-10-07T20:15:34.290Z,97428.00
2022-10-07T20:20:35.274Z,97419.00
2022-10-07T20:25:38.798Z,97406.00
2022-10-07T20:30:39.911Z,97407.00
2022-10-07T20:35:41.062Z,97405.00
2022-10-07T20:42:03.294Z,97403.00
2022-10-07T20:47:09.235Z,97409.00
2022-10-07T20:52:16.461Z,97408.00
2022-10-07T20:57:20.682Z,97402.00
2022-10-07T21:02:22.738Z,97396.00
2022-10-07T21:07:23.620Z,97406.00
2022-10-07T21:12:24.515Z,97394.00
2022-10-07T21:17:25.791Z,97391.00
2022-10-07T21:22:27.540Z,97379.00
2022-10-07T21:27:29.460Z,97380.00
2022-10-07T21:32:30.199Z,97379.00
2022-10-07T21:37:31.175Z,97376.00
2022-10-07T21:42:31.939Z,97374.00
2022-10-07T21:47:32.869Z,97388.00
2022-10-07T21:52:33.689Z,97377.00
2022-10-07T21:57:34.443Z,97377.00
2022-10-07T22:02:35.235Z,97370.00
2022-10-07T22:07:54.621Z,97367.00
2022-10-07T22:12:55.424Z,97365.00
2022-10-07T22:17:56.410Z,97367.00
2022-10-07T22:22:59.974Z,97368.00
2022-10-07T22:28:02.002Z,97363.00
2022-10-07T22:33:02.875Z,97368.00
2022-10-07T22:38:04.072Z,97362.00
2022-10-07T22:43:05.019Z,97362.00
2022-10-07T22:48:06.018Z,97361.00
2022-10-07T22:53:06.749Z,97364.00
2022-10-07T22:58:07.639Z,97363.00
2022-10-07T23:03:11.463Z,97356.00
2022-10-07T23:08:12.344Z,97353.00
2022-10-07T23:13:13.114Z,97353.00
2022-10-07T23:18:13.924Z,97361.00
2022-10-07T23:23:14.670Z,97352.00
2022-10-07T23:28:15.613Z,97354.00
2022-10-07T23:33:16.538Z,97349.00
2022-10-07T23:38:17.670Z,97357.00
2022-10-07T23:43:18.724Z,97345.00
2022-10-07T23:48:19.964Z,97345.00
2022-10-07T23:53:22.308Z,97351.00
2022-10-07T23:58:24.920Z,97345.00
